sensor_id;sensor_type;location;lat;lon;timestamp;temperature;humidity
3648;DHT22;1840;48.892;15.312;2022-10-19T00:01:17;11.80;99.90
3648;DHT22;1840;48.892;15.312;2022-10-19T00:03:47;11.70;99.90
3648;DHT22;1840;48.892;15.312;2022-10-19T00:06:18;11.60;99.90
3648;DHT22;1840;48.892;15.312;2022-10-19T00:08:51;11.50;99.90
3648;DHT22;1840;48.892;15.312;2022-10-19T00:11:21;11.70;99.90
3648;DHT22;1840;48.892;15.312;2022-10-19T00:13:51;11.60;99.90
3648;DHT22;1840;48.892;15.312;2022-10-19T00:16:21;11.60;99.90
3648;DHT22;1840;48.892;15.312;2022-10-19T00:18:49;11.70;99.90
3648;DHT22;1840;48.892;15.312;2022-10-19T00:21:18;11.60;99.90
3648;DHT22;1840;48.892;15.312;2022-10-19T00:23:47;11.70;99.90
3648;DHT22;1840;48.892;15.312;2022-10-19T00:26:15;11.80;99.90
3648;DHT22;1840;48.892;15.312;2022-10-19T00:28:45;11.80;99.90
3648;DHT22;1840;48.892;15.312;2022-10-19T00:31:17;11.70;99.90
3648;DHT22;1840;48.892;15.312;2022-10-19T00:33:46;11.70;99.90
3648;DHT22;1840;48.892;15.312;2022-10-19T00:36:16;11.60;99.90
3648;DHT22;1840;48.892;15.312;2022-10-19T00:38:44;11.50;99.90
3648;DHT22;1840;48.892;15.312;2022-10-19T00:41:14;11.50;99.90
3648;DHT22;1840;48.892;15.312;2022-10-19T00:43:56;11.40;99.90
3648;DHT22;1840;48.892;15.312;2022-10-19T00:46:26;11.40;99.90
3648;DHT22;1840;48.892;15.312;2022-10-19T00:48:58;11.40;99.90
3648;DHT22;1840;48.892;15.312;2022-10-19T00:51:29;11.30;99.90
3648;DHT22;1840;48.892;15.312;2022-10-19T00:54:00;11.20;99.90
3648;DHT22;1840;48.892;15.312;2022-10-19T00:56:30;11.20;99.90
3648;DHT22;1840;48.892;15.312;2022-10-19T00:59:02;11.20;99.90
3648;DHT22;1840;48.892;15.312;2022-10-19T01:01:33;11.40;99.90
3648;DHT22;1840;48.892;15.312;2022-10-19T01:04:03;11.50;99.90
3648;DHT22;1840;48.892;15.312;2022-10-19T01:06:32;11.50;99.90
3648;DHT22;1840;48.892;15.312;2022-10-19T01:09:01;11.60;99.90
3648;DHT22;1840;48.892;15.312;2022-10-19T01:11:38;11.60;99.90
3648;DHT22;1840;48.892;15.312;2022-10-19T01:14:24;11.50;99.90
3648;DHT22;1840;48.892;15.312;2022-10-19T01:17:00;11.50;99.90
3648;DHT22;1840;48.892;15.312;2022-10-19T01:20:04;11.40;99.90
3648;DHT22;1840;48.892;15.312;2022-10-19T01:22:45;11.30;99.90
3648;DHT22;1840;48.892;15.312;2022-10-19T01:25:21;11.20;99.90
3648;DHT22;1840;48.892;15.312;2022-10-19T01:28:02;11.10;99.90
3648;DHT22;1840;48.892;15.312;2022-10-19T01:30:43;11.00;99.90
3648;DHT22;1840;48.892;15.312;2022-10-19T01:33:29;11.00;99.90
3648;DHT22;1840;48.892;15.312;2022-10-19T01:36:05;11.10;99.90
3648;DHT22;1840;48.892;15.312;2022-10-19T01:38:41;11.00;99.90
3648;DHT22;1840;48.892;15.312;2022-10-19T01:41:15;11.00;99.90
3648;DHT22;1840;48.892;15.312;2022-10-19T01:43:54;11.00;99.90
3648;DHT22;1840;48.892;15.312;2022-10-19T01:46:34;10.80;99.90
3648;DHT22;1840;48.892;15.312;2022-10-19T01:49:10;10.80;99.90
3648;DHT22;1840;48.892;15.312;2022-10-19T01:51:42;10.80;99.90
3648;DHT22;1840;48.892;15.312;2022-10-19T01:54:14;10.70;99.90
3648;DHT22;1840;48.892;15.312;2022-10-19T01:56:46;10.70;99.90
3648;DHT22;1840;48.892;15.312;2022-10-19T01:59:17;10.60;99.90
3648;DHT22;1840;48.892;15.312;2022-10-19T02:01:50;10.60;99.90
3648;DHT22;1840;48.892;15.312;2022-10-19T02:04:22;10.60;99.90
3648;DHT22;1840;48.892;15.312;2022-10-19T02:06:52;10.50;99.90
3648;DHT22;1840;48.892;15.312;2022-10-19T02:09:21;10.50;99.90
3648;DHT22;1840;48.892;15.312;2022-10-19T02:11:52;10.30;99.90
3648;DHT22;1840;48.892;15.312;2022-10-19T02:14:26;10.40;99.90
3648;DHT22;1840;48.892;15.312;2022-10-19T02:17:00;10.30;99.90
3648;DHT22;1840;48.892;15.312;2022-10-19T02:19:30;10.30;99.90
3648;DHT22;1840;48.892;15.312;2022-10-19T02:21:58;10.30;99.90
3648;DHT22;1840;48.892;15.312;2022-10-19T02:24:27;10.20;99.90
3648;DHT22;1840;48.892;15.312;2022-10-19T02:26:55;10.10;99.90
3648;DHT22;1840;48.892;15.312;2022-10-19T02:29:24;10.10;99.90
3648;DHT22;1840;48.892;15.312;2022-10-19T02:31:52;10.00;99.90
3648;DHT22;1840;48.892;15.312;2022-10-19T02:34:22;10.00;99.90
3648;DHT22;1840;48.892;15.312;2022-10-19T02:36:50;9.90;99.90
3648;DHT22;1840;48.892;15.312;2022-10-19T02:39:19;9.90;99.90
3648;DHT22;1840;48.892;15.312;2022-10-19T02:41:50;9.90;99.90
3648;DHT22;1840;48.892;15.312;2022-10-19T02:44:22;9.90;99.90
3648;DHT22;1840;48.892;15.312;2022-10-19T02:46:54;9.90;99.90
3648;DHT22;1840;48.892;15.312;2022-10-19T02:49:30;9.90;99.90
3648;DHT22;1840;48.892;15.312;2022-10-19T02:52:02;10.00;99.90
3648;DHT22;1840;48.892;15.312;2022-10-19T02:54:31;10.00;99.90
3648;DHT22;1840;48.892;15.312;2022-10-19T02:56:59;9.90;99.90
3648;DHT22;1840;48.892;15.312;2022-10-19T02:59:27;9.80;99.90
3648;DHT22;1840;48.892;15.312;2022-10-19T03:01:55;9.70;99.90
3648;DHT22;1840;48.892;15.312;2022-10-19T03:04:24;9.80;99.90
3648;DHT22;1840;48.892;15.312;2022-10-19T03:06:53;9.90;99.90
3648;DHT22;1840;48.892;15.312;2022-10-19T03:09:21;9.90;99.90
3648;DHT22;1840;48.892;15.312;2022-10-19T03:11:49;9.90;99.90
3648;DHT22;1840;48.892;15.312;2022-10-19T03:14:18;9.90;99.90
3648;DHT22;1840;48.892;15.312;2022-10-19T03:16:46;9.90;99.90
3648;DHT22;1840;48.892;15.312;2022-10-19T03:19:15;10.00;99.90
3648;DHT22;1840;48.892;15.312;2022-10-19T03:21:43;10.00;99.90
3648;DHT22;1840;48.892;15.312;2022-10-19T03:24:12;10.00;99.90
3648;DHT22;1840;48.892;15.312;2022-10-19T03:26:44;9.90;99.90
3648;DHT22;1840;48.892;15.312;2022-10-19T03:29:12;10.00;99.90
3648;DHT22;1840;48.892;15.312;2022-10-19T03:31:40;10.00;99.90
3648;DHT22;1840;48.892;15.312;2022-10-19T03:34:08;10.10;99.90
3648;DHT22;1840;48.892;15.312;2022-10-19T03:36:38;10.10;99.90
3648;DHT22;1840;48.892;15.312;2022-10-19T03:39:09;10.00;99.90
3648;DHT22;1840;48.892;15.312;2022-10-19T03:41:44;10.20;99.90
3648;DHT22;1840;48.892;15.312;2022-10-19T03:44:12;10.30;99.90
3648;DHT22;1840;48.892;15.312;2022-10-19T03:46:42;10.30;99.90
3648;DHT22;1840;48.892;15.312;2022-10-19T03:49:10;10.40;99.90
3648;DHT22;1840;48.892;15.312;2022-10-19T03:51:39;10.40;99.90
3648;DHT22;1840;48.892;15.312;2022-10-19T03:54:12;10.30;99.90
3648;DHT22;1840;48.892;15.312;2022-10-19T03:56:42;10.30;99.90
3648;DHT22;1840;48.892;15.312;2022-10-19T03:59:13;10.40;99.90
3648;DHT22;1840;48.892;15.312;2022-10-19T04:01:43;10.50;99.90
3648;DHT22;1840;48.892;15.312;2022-10-19T04:04:13;10.40;99.90
3648;DHT22;1840;48.892;15.312;2022-10-19T04:06:44;10.30;99.90
3648;DHT22;1840;48.892;15.312;2022-10-19T04:09:14;10.30;99.90
3648;DHT22;1840;48.892;15.312;2022-10-19T04:11:44;10.20;99.90
3648;DHT22;1840;48.892;15.312;2022-10-19T04:14:13;10.20;99.90
3648;DHT22;1840;48.892;15.312;2022-10-19T04:16:58;10.10;99.90
3648;DHT22;1840;48.892;15.312;2022-10-19T04:19:27;10.00;99.90
3648;DHT22;1840;48.892;15.312;2022-10-19T04:21:56;10.00;99.90
3648;DHT22;1840;48.892;15.312;2022-10-19T04:24:24;10.20;99.90
3648;DHT22;1840;48.892;15.312;2022-10-19T04:26:56;10.10;99.90
3648;DHT22;1840;48.892;15.312;2022-10-19T04:29:40;10.10;99.90
3648;DHT22;1840;48.892;15.312;2022-10-19T04:32:09;10.00;99.90
3648;DHT22;1840;48.892;15.312;2022-10-19T04:34:37;10.00;99.90
3648;DHT22;1840;48.892;15.312;2022-10-19T04:37:06;10.00;99.90
3648;DHT22;1840;48.892;15.312;2022-10-19T04:39:34;10.00;99.90
3648;DHT22;1840;48.892;15.312;2022-10-19T04:42:14;10.00;99.90
3648;DHT22;1840;48.892;15.312;2022-10-19T04:44:42;10.00;99.90
3648;DHT22;1840;48.892;15.312;2022-10-19T04:47:10;10.00;99.90
3648;DHT22;1840;48.892;15.312;2022-10-19T04:49:38;10.00;99.90
3648;DHT22;1840;48.892;15.312;2022-10-19T04:52:06;10.00;99.90
3648;DHT22;1840;48.892;15.312;2022-10-19T04:54:35;10.00;99.90
3648;DHT22;1840;48.892;15.312;2022-10-19T04:57:03;10.10;99.90
3648;DHT22;1840;48.892;15.312;2022-10-19T04:59:32;10.10;99.90
3648;DHT22;1840;48.892;15.312;2022-10-19T05:02:03;10.10;99.90
3648;DHT22;1840;48.892;15.312;2022-10-19T05:04:32;9.90;99.90
3648;DHT22;1840;48.892;15.312;2022-10-19T05:07:00;9.80;99.90
3648;DHT22;1840;48.892;15.312;2022-10-19T05:09:28;9.80;99.90
3648;DHT22;1840;48.892;15.312;2022-10-19T05:11:56;9.70;99.90
3648;DHT22;1840;48.892;15.312;2022-10-19T05:14:24;9.70;99.90
3648;DHT22;1840;48.892;15.312;2022-10-19T05:16:55;9.80;99.90
3648;DHT22;1840;48.892;15.312;2022-10-19T05:19:23;9.60;99.90
3648;DHT22;1840;48.892;15.312;2022-10-19T05:21:51;9.50;99.90
3648;DHT22;1840;48.892;15.312;2022-10-19T05:24:19;9.60;99.90
3648;DHT22;1840;48.892;15.312;2022-10-19T05:26:50;9.50;99.90
3648;DHT22;1840;48.892;15.312;2022-10-19T05:29:19;9.60;99.90
3648;DHT22;1840;48.892;15.312;2022-10-19T05:31:47;9.40;99.90
3648;DHT22;1840;48.892;15.312;2022-10-19T05:34:16;9.40;99.90
3648;DHT22;1840;48.892;15.312;2022-10-19T05:36:44;9.40;99.90
3648;DHT22;1840;48.892;15.312;2022-10-19T05:39:15;9.60;99.90
3648;DHT22;1840;48.892;15.312;2022-10-19T05:41:43;9.60;99.90
3648;DHT22;1840;48.892;15.312;2022-10-19T05:44:14;9.70;99.90
3648;DHT22;1840;48.892;15.312;2022-10-19T05:46:43;9.50;99.90
3648;DHT22;1840;48.892;15.312;2022-10-19T05:49:12;9.40;99.90
3648;DHT22;1840;48.892;15.312;2022-10-19T05:51:42;9.30;99.90
3648;DHT22;1840;48.892;15.312;2022-10-19T05:54:11;9.40;99.90
3648;DHT22;1840;48.892;15.312;2022-10-19T05:56:40;9.50;99.90
3648;DHT22;1840;48.892;15.312;2022-10-19T05:59:12;9.50;99.90
3648;DHT22;1840;48.892;15.312;2022-10-19T06:01:41;9.60;99.90
3648;DHT22;1840;48.892;15.312;2022-10-19T06:04:10;9.60;99.90
3648;DHT22;1840;48.892;15.312;2022-10-19T06:06:42;9.70;99.90
3648;DHT22;1840;48.892;15.312;2022-10-19T06:09:10;9.80;99.90
3648;DHT22;1840;48.892;15.312;2022-10-19T06:11:40;9.80;99.90
3648;DHT22;1840;48.892;15.312;2022-10-19T06:14:11;9.90;99.90
3648;DHT22;1840;48.892;15.312;2022-10-19T06:16:40;10.00;99.90
3648;DHT22;1840;48.892;15.312;2022-10-19T06:19:09;10.00;99.90
3648;DHT22;1840;48.892;15.312;2022-10-19T06:21:37;10.00;99.90
3648;DHT22;1840;48.892;15.312;2022-10-19T06:24:12;10.20;99.90
3648;DHT22;1840;48.892;15.312;2022-10-19T06:26:41;10.20;99.90
3648;DHT22;1840;48.892;15.312;2022-10-19T06:29:12;10.20;99.90
3648;DHT22;1840;48.892;15.312;2022-10-19T06:31:40;10.40;99.90
3648;DHT22;1840;48.892;15.312;2022-10-19T06:34:08;10.40;99.90
3648;DHT22;1840;48.892;15.312;2022-10-19T06:36:36;10.50;99.90
3648;DHT22;1840;48.892;15.312;2022-10-19T06:39:04;10.50;99.90
3648;DHT22;1840;48.892;15.312;2022-10-19T06:41:34;10.30;99.90
3648;DHT22;1840;48.892;15.312;2022-10-19T06:44:02;10.30;99.90
3648;DHT22;1840;48.892;15.312;2022-10-19T06:46:30;10.40;99.90
3648;DHT22;1840;48.892;15.312;2022-10-19T06:49:01;10.50;99.90
3648;DHT22;1840;48.892;15.312;2022-10-19T06:51:30;10.80;99.90
3648;DHT22;1840;48.892;15.312;2022-10-19T06:54:00;10.90;99.90
3648;DHT22;1840;48.892;15.312;2022-10-19T06:56:28;11.00;99.90
3648;DHT22;1840;48.892;15.312;2022-10-19T06:58:58;11.10;99.90
3648;DHT22;1840;48.892;15.312;2022-10-19T07:01:26;11.40;99.90
3648;DHT22;1840;48.892;15.312;2022-10-19T07:03:54;11.40;99.90
3648;DHT22;1840;48.892;15.312;2022-10-19T07:06:23;11.50;99.90
3648;DHT22;1840;48.892;15.312;2022-10-19T07:08:51;11.60;99.90
3648;DHT22;1840;48.892;15.312;2022-10-19T07:11:20;11.40;99.90
3648;DHT22;1840;48.892;15.312;2022-10-19T07:13:50;11.30;99.90
3648;DHT22;1840;48.892;15.312;2022-10-19T07:16:20;11.40;99.90
3648;DHT22;1840;48.892;15.312;2022-10-19T07:18:50;11.40;99.90
3648;DHT22;1840;48.892;15.312;2022-10-19T07:21:20;11.20;99.90
3648;DHT22;1840;48.892;15.312;2022-10-19T07:23:48;11.10;99.90
3648;DHT22;1840;48.892;15.312;2022-10-19T07:26:18;11.30;99.90
3648;DHT22;1840;48.892;15.312;2022-10-19T07:28:49;11.40;99.90
3648;DHT22;1840;48.892;15.312;2022-10-19T07:31:21;11.30;99.90
3648;DHT22;1840;48.892;15.312;2022-10-19T07:33:51;11.40;99.90
3648;DHT22;1840;48.892;15.312;2022-10-19T07:36:20;11.40;99.90
3648;DHT22;1840;48.892;15.312;2022-10-19T07:38:49;11.40;99.90
3648;DHT22;1840;48.892;15.312;2022-10-19T07:41:18;11.50;99.90
3648;DHT22;1840;48.892;15.312;2022-10-19T07:43:47;11.60;99.90
3648;DHT22;1840;48.892;15.312;2022-10-19T07:46:17;11.70;99.90
3648;DHT22;1840;48.892;15.312;2022-10-19T07:48:47;11.70;99.90
3648;DHT22;1840;48.892;15.312;2022-10-19T07:51:16;11.90;99.90
3648;DHT22;1840;48.892;15.312;2022-10-19T07:53:46;11.90;99.90
3648;DHT22;1840;48.892;15.312;2022-10-19T07:56:15;12.00;99.90
3648;DHT22;1840;48.892;15.312;2022-10-19T07:58:44;12.10;99.90
3648;DHT22;1840;48.892;15.312;2022-10-19T08:01:14;12.20;99.90
3648;DHT22;1840;48.892;15.312;2022-10-19T08:03:42;12.10;99.90
3648;DHT22;1840;48.892;15.312;2022-10-19T08:06:32;12.30;99.90
3648;DHT22;1840;48.892;15.312;2022-10-19T08:09:00;12.30;99.90
3648;DHT22;1840;48.892;15.312;2022-10-19T08:11:30;12.40;99.90
3648;DHT22;1840;48.892;15.312;2022-10-19T08:13:59;12.40;99.90
3648;DHT22;1840;48.892;15.312;2022-10-19T08:16:30;12.50;99.90
3648;DHT22;1840;48.892;15.312;2022-10-19T08:19:00;12.50;99.90
3648;DHT22;1840;48.892;15.312;2022-10-19T08:21:29;12.50;99.90
3648;DHT22;1840;48.892;15.312;2022-10-19T08:24:00;12.50;99.90
3648;DHT22;1840;48.892;15.312;2022-10-19T08:26:30;12.40;99.90
3648;DHT22;1840;48.892;15.312;2022-10-19T08:28:59;12.30;99.90
3648;DHT22;1840;48.892;15.312;2022-10-19T08:31:27;12.40;99.90
3648;DHT22;1840;48.892;15.312;2022-10-19T08:33:56;12.10;99.90
3648;DHT22;1840;48.892;15.312;2022-10-19T08:36:25;11.80;99.90
3648;DHT22;1840;48.892;15.312;2022-10-19T08:38:57;11.70;99.90
3648;DHT22;1840;48.892;15.312;2022-10-19T08:41:31;11.50;99.90
3648;DHT22;1840;48.892;15.312;2022-10-19T08:44:15;11.50;99.90
3648;DHT22;1840;48.892;15.312;2022-10-19T08:46:53;11.50;99.90
3648;DHT22;1840;48.892;15.312;2022-10-19T08:49:29;11.60;99.90
3648;DHT22;1840;48.892;15.312;2022-10-19T08:52:00;11.70;99.90
3648;DHT22;1840;48.892;15.312;2022-10-19T08:54:34;11.80;99.90
3648;DHT22;1840;48.892;15.312;2022-10-19T08:57:21;11.90;99.90
3648;DHT22;1840;48.892;15.312;2022-10-19T08:59:55;11.90;99.90
3648;DHT22;1840;48.892;15.312;2022-10-19T09:02:36;12.10;99.90
3648;DHT22;1840;48.892;15.312;2022-10-19T09:05:15;11.90;99.90
3648;DHT22;1840;48.892;15.312;2022-10-19T09:07:48;12.10;99.90
3648;DHT22;1840;48.892;15.312;2022-10-19T09:10:22;12.30;99.90
3648;DHT22;1840;48.892;15.312;2022-10-19T09:12:56;12.30;99.90
3648;DHT22;1840;48.892;15.312;2022-10-19T09:15:27;12.30;99.90
3648;DHT22;1840;48.892;15.312;2022-10-19T09:18:00;12.50;99.90
3648;DHT22;1840;48.892;15.312;2022-10-19T09:20:32;12.30;99.90
3648;DHT22;1840;48.892;15.312;2022-10-19T09:23:06;12.20;99.90
3648;DHT22;1840;48.892;15.312;2022-10-19T09:25:39;12.10;99.90
3648;DHT22;1840;48.892;15.312;2022-10-19T09:28:22;12.10;99.90
3648;DHT22;1840;48.892;15.312;2022-10-19T09:31:05;12.30;99.90
3648;DHT22;1840;48.892;15.312;2022-10-19T09:33:37;12.40;99.90
3648;DHT22;1840;48.892;15.312;2022-10-19T09:36:06;12.80;99.90
3648;DHT22;1840;48.892;15.312;2022-10-19T09:38:49;13.20;99.90
3648;DHT22;1840;48.892;15.312;2022-10-19T09:41:20;13.60;99.90
3648;DHT22;1840;48.892;15.312;2022-10-19T09:43:52;13.80;99.90
3648;DHT22;1840;48.892;15.312;2022-10-19T09:46:38;14.00;99.40
3648;DHT22;1840;48.892;15.312;2022-10-19T09:49:08;13.90;99.90
3648;DHT22;1840;48.892;15.312;2022-10-19T09:51:46;13.80;99.20
3648;DHT22;1840;48.892;15.312;2022-10-19T09:54:24;13.60;98.90
3648;DHT22;1840;48.892;15.312;2022-10-19T09:56:55;13.20;99.60
3648;DHT22;1840;48.892;15.312;2022-10-19T09:59:35;13.10;99.50
3648;DHT22;1840;48.892;15.312;2022-10-19T10:02:15;13.10;99.90
3648;DHT22;1840;48.892;15.312;2022-10-19T10:04:54;13.30;99.90
3648;DHT22;1840;48.892;15.312;2022-10-19T10:07:26;13.30;99.90
3648;DHT22;1840;48.892;15.312;2022-10-19T10:09:59;13.50;99.50
3648;DHT22;1840;48.892;15.312;2022-10-19T10:12:28;13.40;99.80
3648;DHT22;1840;48.892;15.312;2022-10-19T10:14:57;13.50;99.90
3648;DHT22;1840;48.892;15.312;2022-10-19T10:17:28;13.70;99.90
3648;DHT22;1840;48.892;15.312;2022-10-19T10:20:05;13.80;99.90
3648;DHT22;1840;48.892;15.312;2022-10-19T10:22:51;13.70;99.10
3648;DHT22;1840;48.892;15.312;2022-10-19T10:25:22;13.50;98.00
3648;DHT22;1840;48.892;15.312;2022-10-19T10:27:57;13.50;97.90
3648;DHT22;1840;48.892;15.312;2022-10-19T10:30:31;13.30;98.50
3648;DHT22;1840;48.892;15.312;2022-10-19T10:33:01;13.40;98.70
3648;DHT22;1840;48.892;15.312;2022-10-19T10:35:46;13.40;98.20
3648;DHT22;1840;48.892;15.312;2022-10-19T10:38:17;13.20;98.10
3648;DHT22;1840;48.892;15.312;2022-10-19T10:40:50;13.20;98.20
3648;DHT22;1840;48.892;15.312;2022-10-19T10:43:20;12.90;97.90
3648;DHT22;1840;48.892;15.312;2022-10-19T10:45:53;12.80;98.10
3648;DHT22;1840;48.892;15.312;2022-10-19T10:48:27;13.10;97.80
3648;DHT22;1840;48.892;15.312;2022-10-19T10:50:59;13.60;97.30
3648;DHT22;1840;48.892;15.312;2022-10-19T10:53:31;13.70;97.30
3648;DHT22;1840;48.892;15.312;2022-10-19T10:56:01;13.60;97.40
3648;DHT22;1840;48.892;15.312;2022-10-19T10:58:35;13.50;98.10
3648;DHT22;1840;48.892;15.312;2022-10-19T11:01:17;13.30;98.40
3648;DHT22;1840;48.892;15.312;2022-10-19T11:03:51;13.20;98.40
3648;DHT22;1840;48.892;15.312;2022-10-19T11:06:27;13.10;98.80
3648;DHT22;1840;48.892;15.312;2022-10-19T11:09:05;13.10;98.80
3648;DHT22;1840;48.892;15.312;2022-10-19T11:11:37;13.40;99.50
3648;DHT22;1840;48.892;15.312;2022-10-19T11:14:21;13.90;98.20
3648;DHT22;1840;48.892;15.312;2022-10-19T11:16:53;14.10;98.30
3648;DHT22;1840;48.892;15.312;2022-10-19T11:19:25;14.30;98.50
3648;DHT22;1840;48.892;15.312;2022-10-19T11:22:01;14.40;97.90
3648;DHT22;1840;48.892;15.312;2022-10-19T11:24:41;14.30;97.50
3648;DHT22;1840;48.892;15.312;2022-10-19T11:27:23;13.70;96.30
3648;DHT22;1840;48.892;15.312;2022-10-19T11:30:14;13.10;97.40
3648;DHT22;1840;48.892;15.312;2022-10-19T11:33:00;13.00;97.20
3648;DHT22;1840;48.892;15.312;2022-10-19T11:35:40;12.90;97.60
3648;DHT22;1840;48.892;15.312;2022-10-19T11:38:32;12.90;97.90
3648;DHT22;1840;48.892;15.312;2022-10-19T11:41:15;13.10;97.70
3648;DHT22;1840;48.892;15.312;2022-10-19T11:43:55;13.30;96.60
3648;DHT22;1840;48.892;15.312;2022-10-19T11:46:33;13.50;97.00
3648;DHT22;1840;48.892;15.312;2022-10-19T11:49:17;13.20;96.20
3648;DHT22;1840;48.892;15.312;2022-10-19T11:51:54;13.00;96.90
3648;DHT22;1840;48.892;15.312;2022-10-19T11:54:37;12.90;97.10
3648;DHT22;1840;48.892;15.312;2022-10-19T11:57:12;13.00;97.60
3648;DHT22;1840;48.892;15.312;2022-10-19T12:00:05;13.20;97.80
3648;DHT22;1840;48.892;15.312;2022-10-19T12:03:15;13.40;97.00
3648;DHT22;1840;48.892;15.312;2022-10-19T12:06:00;13.50;96.80
3648;DHT22;1840;48.892;15.312;2022-10-19T12:08:41;12.90;97.00
3648;DHT22;1840;48.892;15.312;2022-10-19T12:11:23;12.50;96.90
3648;DHT22;1840;48.892;15.312;2022-10-19T12:13:57;12.50;97.00
3648;DHT22;1840;48.892;15.312;2022-10-19T12:16:33;12.40;96.90
3648;DHT22;1840;48.892;15.312;2022-10-19T12:19:03;12.60;97.70
3648;DHT22;1840;48.892;15.312;2022-10-19T12:21:36;12.80;96.90
3648;DHT22;1840;48.892;15.312;2022-10-19T12:24:12;13.00;96.50
3648;DHT22;1840;48.892;15.312;2022-10-19T12:26:43;13.10;96.50
3648;DHT22;1840;48.892;15.312;2022-10-19T12:29:14;13.20;96.80
3648;DHT22;1840;48.892;15.312;2022-10-19T12:31:44;13.20;95.90
3648;DHT22;1840;48.892;15.312;2022-10-19T12:34:22;13.00;96.30
3648;DHT22;1840;48.892;15.312;2022-10-19T12:36:57;13.10;96.10
3648;DHT22;1840;48.892;15.312;2022-10-19T12:39:33;12.90;95.80
3648;DHT22;1840;48.892;15.312;2022-10-19T12:42:08;12.90;96.10
3648;DHT22;1840;48.892;15.312;2022-10-19T12:47:35;13.00;95.60
3648;DHT22;1840;48.892;15.312;2022-10-19T12:50:03;13.10;95.90
3648;DHT22;1840;48.892;15.312;2022-10-19T12:52:40;12.90;95.40
3648;DHT22;1840;48.892;15.312;2022-10-19T12:55:26;12.80;95.20
3648;DHT22;1840;48.892;15.312;2022-10-19T12:58:01;12.60;95.60
3648;DHT22;1840;48.892;15.312;2022-10-19T13:00:32;12.50;95.70
3648;DHT22;1840;48.892;15.312;2022-10-19T13:03:04;12.60;95.60
3648;DHT22;1840;48.892;15.312;2022-10-19T13:05:34;12.50;94.70
3648;DHT22;1840;48.892;15.312;2022-10-19T13:08:05;12.40;95.20
3648;DHT22;1840;48.892;15.312;2022-10-19T13:10:40;12.40;95.30
3648;DHT22;1840;48.892;15.312;2022-10-19T13:19:22;12.10;95.20
3648;DHT22;1840;48.892;15.312;2022-10-19T13:25:20;12.40;94.80
3648;DHT22;1840;48.892;15.312;2022-10-19T13:27:50;12.70;95.00
3648;DHT22;1840;48.892;15.312;2022-10-19T13:30:57;12.90;94.60
3648;DHT22;1840;48.892;15.312;2022-10-19T13:33:54;12.90;93.60
3648;DHT22;1840;48.892;15.312;2022-10-19T13:36:24;12.70;94.50
3648;DHT22;1840;48.892;15.312;2022-10-19T13:39:17;12.50;94.30
3648;DHT22;1840;48.892;15.312;2022-10-19T13:41:51;12.40;95.00
3648;DHT22;1840;48.892;15.312;2022-10-19T13:44:31;12.40;95.30
3648;DHT22;1840;48.892;15.312;2022-10-19T13:47:22;12.40;95.70
3648;DHT22;1840;48.892;15.312;2022-10-19T13:50:17;12.30;95.60
3648;DHT22;1840;48.892;15.312;2022-10-19T13:53:10;12.20;95.40
3648;DHT22;1840;48.892;15.312;2022-10-19T14:02:15;12.10;95.70
3648;DHT22;1840;48.892;15.312;2022-10-19T14:04:59;12.20;96.30
3648;DHT22;1840;48.892;15.312;2022-10-19T14:07:41;12.10;96.00
3648;DHT22;1840;48.892;15.312;2022-10-19T14:10:17;12.00;95.80
3648;DHT22;1840;48.892;15.312;2022-10-19T14:12:54;11.80;95.60
3648;DHT22;1840;48.892;15.312;2022-10-19T14:15:25;11.80;95.50
3648;DHT22;1840;48.892;15.312;2022-10-19T14:17:56;11.90;96.00
3648;DHT22;1840;48.892;15.312;2022-10-19T14:20:31;11.80;95.90
3648;DHT22;1840;48.892;15.312;2022-10-19T14:23:18;11.80;95.90
3648;DHT22;1840;48.892;15.312;2022-10-19T14:25:52;11.90;95.50
3648;DHT22;1840;48.892;15.312;2022-10-19T14:28:24;11.90;95.60
3648;DHT22;1840;48.892;15.312;2022-10-19T14:30:58;11.80;95.40
3648;DHT22;1840;48.892;15.312;2022-10-19T14:33:30;11.70;95.30
3648;DHT22;1840;48.892;15.312;2022-10-19T14:35:59;11.80;94.90
3648;DHT22;1840;48.892;15.312;2022-10-19T14:38:32;11.90;94.80
3648;DHT22;1840;48.892;15.312;2022-10-19T14:41:01;11.90;95.50
3648;DHT22;1840;48.892;15.312;2022-10-19T14:43:31;11.80;95.20
3648;DHT22;1840;48.892;15.312;2022-10-19T14:46:09;11.90;95.00
3648;DHT22;1840;48.892;15.312;2022-10-19T14:48:41;11.90;94.70
3648;DHT22;1840;48.892;15.312;2022-10-19T14:51:21;11.80;94.10
3648;DHT22;1840;48.892;15.312;2022-10-19T14:53:56;11.50;94.20
3648;DHT22;1840;48.892;15.312;2022-10-19T14:56:31;11.30;94.20
3648;DHT22;1840;48.892;15.312;2022-10-19T14:59:03;11.30;94.40
3648;DHT22;1840;48.892;15.312;2022-10-19T15:01:32;11.30;95.00
3648;DHT22;1840;48.892;15.312;2022-10-19T15:04:02;11.30;95.00
3648;DHT22;1840;48.892;15.312;2022-10-19T15:06:33;11.50;95.00
3648;DHT22;1840;48.892;15.312;2022-10-19T15:09:18;11.50;94.70
3648;DHT22;1840;48.892;15.312;2022-10-19T15:12:06;11.50;94.30
3648;DHT22;1840;48.892;15.312;2022-10-19T15:14:36;11.40;94.30
3648;DHT22;1840;48.892;15.312;2022-10-19T15:17:21;11.40;94.60
3648;DHT22;1840;48.892;15.312;2022-10-19T15:19:54;11.40;94.40
3648;DHT22;1840;48.892;15.312;2022-10-19T15:22:37;11.30;94.60
3648;DHT22;1840;48.892;15.312;2022-10-19T15:25:25;11.20;94.60
3648;DHT22;1840;48.892;15.312;2022-10-19T15:27:53;11.10;94.20
3648;DHT22;1840;48.892;15.312;2022-10-19T15:30:26;10.80;94.40
3648;DHT22;1840;48.892;15.312;2022-10-19T15:33:08;10.60;94.50
3648;DHT22;1840;48.892;15.312;2022-10-19T15:35:42;10.60;94.50
3648;DHT22;1840;48.892;15.312;2022-10-19T15:38:18;10.60;94.20
3648;DHT22;1840;48.892;15.312;2022-10-19T15:40:48;10.30;94.90
3648;DHT22;1840;48.892;15.312;2022-10-19T15:43:30;10.30;94.90
3648;DHT22;1840;48.892;15.312;2022-10-19T15:46:05;10.20;94.70
3648;DHT22;1840;48.892;15.312;2022-10-19T15:48:44;10.10;94.70
3648;DHT22;1840;48.892;15.312;2022-10-19T15:51:36;9.90;94.90
3648;DHT22;1840;48.892;15.312;2022-10-19T15:54:06;9.80;95.30
3648;DHT22;1840;48.892;15.312;2022-10-19T15:56:37;9.70;95.30
3648;DHT22;1840;48.892;15.312;2022-10-19T15:59:11;9.70;95.30
3648;DHT22;1840;48.892;15.312;2022-10-19T16:01:40;9.50;95.20
3648;DHT22;1840;48.892;15.312;2022-10-19T16:04:10;9.30;95.40
3648;DHT22;1840;48.892;15.312;2022-10-19T16:06:42;9.30;95.50
3648;DHT22;1840;48.892;15.312;2022-10-19T16:09:16;9.20;95.30
3648;DHT22;1840;48.892;15.312;2022-10-19T16:11:45;9.00;95.70
3648;DHT22;1840;48.892;15.312;2022-10-19T16:14:13;8.80;95.60
3648;DHT22;1840;48.892;15.312;2022-10-19T16:16:48;8.50;95.70
3648;DHT22;1840;48.892;15.312;2022-10-19T16:19:16;8.50;95.90
3648;DHT22;1840;48.892;15.312;2022-10-19T16:21:49;8.40;95.80
3648;DHT22;1840;48.892;15.312;2022-10-19T16:24:17;8.40;95.90
3648;DHT22;1840;48.892;15.312;2022-10-19T16:26:45;8.30;95.90
3648;DHT22;1840;48.892;15.312;2022-10-19T16:29:13;8.30;95.70
3648;DHT22;1840;48.892;15.312;2022-10-19T16:31:41;8.20;95.50
3648;DHT22;1840;48.892;15.312;2022-10-19T16:34:09;8.10;95.80
3648;DHT22;1840;48.892;15.312;2022-10-19T16:36:37;8.00;95.60
3648;DHT22;1840;48.892;15.312;2022-10-19T16:39:06;8.00;96.10
3648;DHT22;1840;48.892;15.312;2022-10-19T16:41:34;8.00;96.00
3648;DHT22;1840;48.892;15.312;2022-10-19T16:44:10;8.10;95.90
3648;DHT22;1840;48.892;15.312;2022-10-19T16:46:38;8.20;95.60